Terminal Aerodrome Forecast
Issued by NWS

Home | Current Version | Previous Version | Text Only | Print | Product List | Glossary On
Versions: 1 2 3 4 5 6 7 8 9 10 11 12 13 14 15 16 17 18 19 20
000
FTUS43 KGRB 240520
TAFRHI
TAF
KRHI 240520Z 2406/2506 20010G17KT P6SM BKN090 WS015/25045KT
     FM241500 22012G18KT P6SM VCSH BKN035 BKN100
     FM242000 26010G17KT P6SM -SHRA SCT020 OVC035
      TEMPO 2421/2501 5SM -SHRA BR BKN012 OVC020
     FM250100 29011G18KT P6SM BKN025=

USA.gov is the U.S. government's official web portal to all federal, state and local government web resources and services.